Joplin Regional Airport
KJLN : now visible

Airfield :











YOU CAN JOIN US ON...

 
LOGIN :

Register | Disclaimer

   EN    FR    IT 

 









Legend :    VFR   Marginal VFR   IFR   Intensive IFR   Very Intensive IFR
Visi :
Ceiling :
>= 8 km
>= 3000ft
5 to 8 km
1000 to 3000 ft
1500m to 5 km
500 to 1000 ft
800 to 1500m
200 to 500 ft
< 800m
< 200 ft
Symbols :   Thunderstorms  Fog  Heavy snow  Heavy precipitations  Wind > 20 kt






- Airport Elevation : 981 ft
- IATA code : JLN


KJLN - Joplin Regional

CURRENT METAR :
  • 112114Z 14007KT 10SM FEW025 SCT070 BKN095 26/16 A2999 RMK AO2 TSE08 T02560161

EXPIRED METARs :
  • 112053Z COR 17014G20KT 10SM TS SCT025 SCT042 27/19 A2999 RMK AO2 RAE32 TSB46 SLP145 OCNL LTGIC OHD TS OHD MOV W P0000 60000 T02670189 51004
  • 112031Z 22006KT 10SM VCTS -RA FEW034 SCT075 29/23 A2998 RMK AO2 LTG DSNT SE TSE01 P0000 T02890233
  • 112024Z 19005KT 10SM -RA FEW028 BKN033 BKN075 29/23 A2999 RMK AO2 LTG DSNT SE TSE01 P0000 T02890233
  • 112007Z 22006KT 10SM VCTS -RA SCT031 BKN075 BKN110 29/23 A2999 RMK AO2 LTG DSNT E AND SE TSE01 P0000 T02890233
  • 111953Z 24007KT 10SM -RA SCT039 BKN070 BKN110 29/23 A2998 RMK AO2 LTG DSNT SE RAB11 SLP141 P0000 T02890228
  • 111853Z 24005KT 10SM FEW035 SCT100 29/22 A2998 RMK AO2 SLP140 T02940217

TAF KJLN
Valid from the 11 at 18:00 until the 12 at 18:00 UTC


111720Z 1118/1218 22008KT P6SM VCTS SCT050CB
FM120000 18008KT P6SM SCT100
FM121600 17005KT P6SM SCT180
PROB30 1217/1218 4SM TSRA BR BKN180CB
KZKC FIR / North America



MET'MAP, your aeronautical weather chart ! - Copyright ORBIFLY December 2007 - Disclaimer

ORBIFLY MET'MAP TEAM :

Programming & Development : Alexandra Zaïnal
Concept & original design : Baudouin d'Aumeries
Assistance for programming : Marc-Olivier Méhu
Technical & hardware support : Manuel Goepfert

Contact : metmap@orbifly.com




SOURCES & CREDITS :

   NOAA       Earth
Advisory